Flight Track Log - Related Links

Times and Time Zones

All times are in EDT time to prevent confusion due to time zone crossing. See the TRS359 flight status page for this flight to view local times or setup timezone preferences in your user account.

Time Position Orientation Groundspeed Altitude Reporting Facility
EDT Latitude Longitude Course Direction KTS MPH feet Rate Location/Type
Sun 07:45:22 AM 39.2833 -94.7333 166° South 180 207 1,700  Level Kansas City TRACON
Sun 07:46:22 AM 39.2333 -94.7167 166° South 221 254 3,400 1,528 Climbing Kansas City TRACON
Sun 07:47:08 AM 39.1861 -94.7178 181° South 251 289 4,400 2,075 Climbing Kansas City Center
Sun 07:48:09 AM 39.0969 -94.7006 171° South 286 329 7,100 2,459 Climbing Kansas City Center
Sun 07:49:10 AM 39.0167 -94.6800 169° South 305 351 9,400 1,884 Climbing Kansas City Center
Sun 07:50:10 AM 38.9300 -94.6567 168° South 330 380 10,900 1,736 Climbing Kansas City Center
Sun 07:51:11 AM 38.8158 -94.6281 169° South 372 428 12,900 1,835 Climbing Kansas City Center
Sun 07:52:11 AM 38.7128 -94.6003 168° South 390 449 14,600 1,884 Climbing Kansas City Center
Sun 07:53:12 AM 38.6061 -94.5742 169° South 404 465 16,700 1,934 Climbing Kansas City Center
Sun 07:54:12 AM 38.4958 -94.5464 169° South 419 482 18,500 1,934 Climbing Kansas City Center
Sun 07:55:13 AM 38.3622 -94.5114 168° South 436 502 20,600 1,934 Climbing Kansas City Center
Sun 07:56:13 AM 38.2531 -94.4511 157° South 449 517 22,400 1,686 Climbing Kansas City Center
Sun 07:57:14 AM 38.1636 -94.3497 138° Southeast 451 519 24,000 1,721 Climbing Kansas City Center
Sun 07:58:15 AM 38.0611 -94.2217 135° Southeast 461 531 25,900 1,587 Climbing Kansas City Center
Sun 07:59:15 AM 37.9739 -94.1078 134° Southeast 467 537 27,200 1,240 Climbing Kansas City Center
Sun 08:00:16 AM 37.8772 -93.9856 135° Southeast 473 544 28,400 1,190 Climbing Kansas City Center
Sun 08:01:16 AM 37.7803 -93.8639 135° Southeast 484 557 29,600 1,537 Climbing Kansas City Center
Sun 08:02:17 AM 37.6850 -93.7439 135° Southeast 485 558 31,500 1,475 Climbing Kansas City Center
Sun 08:03:18 AM 37.5922 -93.6289 135° Southeast 474 545 32,600 992 Climbing Kansas City Center
Sun 08:04:18 AM 37.4989 -93.5117 135° Southeast 473 544 33,500 992 Climbing Kansas City Center
Sun 08:05:19 AM 37.4031 -93.3928 135° Southeast 479 551 34,600 738 Climbing Kansas City Center
Sun 08:06:20 AM 37.3114 -93.2706 133° Southeast 480 552 35,000 198 Climbing Kansas City Center
Sun 08:07:20 AM 37.2278 -93.1428 129° Southeast 477 549 35,000  Level Kansas City Center
Sun 08:08:21 AM 37.1417 -93.0150 130° Southeast 478 550 35,000  Level Kansas City Center
Sun 08:09:21 AM 37.0550 -92.8861 130° Southeast 481 554 35,000  Level Kansas City Center
Sun 08:10:22 AM 36.9681 -92.7567 130° Southeast 483 556 35,000  Level Kansas City Center
Sun 08:11:23 AM 36.8808 -92.6281 130° Southeast 484 557 35,000  Level Kansas City Center
Sun 08:11:57 AM 36.8253 -92.5469 131° Southeast 489 563 35,000  Level Memphis Center
Sun 08:12:57 AM 36.7358 -92.4203 131° Southeast 489 563 35,000  Level Memphis Center
Sun 08:13:57 AM 36.6481 -92.2914 130° Southeast 489 563 35,000  Level Memphis Center
Sun 08:14:57 AM 36.5625 -92.1628 130° Southeast 489 563 35,000  Level Memphis Center
Sun 08:15:57 AM 36.4767 -92.0369 130° Southeast 489 563 35,000  Level Memphis Center
Sun 08:16:57 AM 36.3908 -91.9089 130° Southeast 489 563 35,000  Level Memphis Center
Sun 08:17:57 AM 36.3028 -91.7861 132° Southeast 489 563 35,000  Level Memphis Center
Sun 08:18:57 AM 36.2081 -91.6586 133° Southeast 489 563 35,000  Level Memphis Center
Sun 08:19:57 AM 36.1178 -91.5286 131° Southeast 495 570 35,000  Level Memphis Center
Sun 08:20:57 AM 36.0292 -91.4042 131° Southeast 489 563 35,000  Level Memphis Center
Sun 08:21:57 AM 35.9406 -91.2775 131° Southeast 489 563 35,000  Level Memphis Center
Sun 08:22:57 AM 35.8517 -91.1483 130° Southeast 489 563 35,000  Level Memphis Center
Sun 08:23:57 AM 35.7628 -91.0247 132° Southeast 496 571 35,000  Level Memphis Center
Sun 08:24:57 AM 35.6694 -90.8861 130° Southeast 486 559 35,000  Level Memphis Center
Sun 08:25:57 AM 35.5783 -90.7603 132° Southeast 486 559 35,000  Level Memphis Center
Sun 08:26:57 AM 35.4889 -90.6325 131° Southeast 486 559 35,000  Level Memphis Center
Sun 08:27:57 AM 35.3994 -90.5072 131° Southeast 493 567 35,000  Level Memphis Center
Sun 08:28:57 AM 35.3097 -90.3850 132° Southeast 488 562 35,000  Level Memphis Center
Sun 08:29:57 AM 35.2181 -90.2581 131° Southeast 495 570 35,000  Level Memphis Center
Sun 08:30:57 AM 35.1261 -90.1336 132° Southeast 489 563 35,000  Level Memphis Center
Sun 08:31:57 AM 35.0172 -90.0403 145° Southeast 483 556 35,000  Level Memphis Center
Sun 08:32:57 AM 34.8983 -90.0025 165° South 463 533 35,000  Level Memphis Center
Sun 08:33:57 AM 34.7814 -90.0081 182° South 423 487 35,000  Level Memphis Center
Sun 08:34:57 AM 34.6647 -90.0136 182° South 423 487 35,000  Level Memphis Center
Sun 08:35:57 AM 34.5542 -90.0192 182° South 418 481 35,000  Level Memphis Center
Sun 08:36:57 AM 34.4414 -90.0297 184° South 413 475 35,000  Level Memphis Center
Sun 08:37:57 AM 34.3267 -90.0353 182° South 408 470 35,000  Level Memphis Center
Sun 08:38:57 AM 34.2267 -90.0431 184° South 408 470 35,000  Level Memphis Center
Sun 08:39:57 AM 34.1117 -90.0536 184° South 408 470 35,000  Level Memphis Center
Sun 08:40:57 AM 34.0011 -90.0589 182° South 408 470 35,000  Level Memphis Center
Sun 08:41:57 AM 33.8886 -90.0694 184° South 408 470 35,000  Level Memphis Center
Sun 08:42:57 AM 33.7758 -90.0797 184° South 408 470 35,000  Level Memphis Center
Sun 08:43:57 AM 33.6611 -90.0853 182° South 408 470 35,000  Level Memphis Center
Sun 08:44:57 AM 33.5483 -90.0956 184° South 408 470 35,000  Level Memphis Center
Sun 08:45:57 AM 33.4314 -90.1033 183° South 413 475 35,000  Level Memphis Center
Sun 08:46:57 AM 33.3189 -90.1111 183° South 413 475 35,000  Level Memphis Center
Sun 08:47:57 AM 33.2039 -90.0867 170° South 413 475 35,000  Level Memphis Center
Sun 08:48:57 AM 33.1200 -89.9628 129° Southeast 415 478 35,000  Level Memphis Center
Sun 08:49:57 AM 33.0300 -89.8394 131° Southeast 435 501 35,000  Level Memphis Center
Sun 08:50:57 AM 32.9997 -89.6636 102° East 462 532 35,000  Level Memphis Center
Sun 08:51:57 AM 32.9572 -89.5106 108° East 480 552 35,000  Level Memphis Center
Sun 08:52:57 AM 32.9161 -89.3525 107° East 486 559 35,000  Level Memphis Center
Sun 08:53:57 AM 32.8525 -89.2122 118° Southeast 486 559 35,000  Level Memphis Center
Sun 08:54:57 AM 32.7906 -89.0697 117° Southeast 481 554 35,000  Level Memphis Center
Sun 08:55:57 AM 32.7283 -88.9275 117° Southeast 481 554 35,000  Level Memphis Center
Sun 08:56:57 AM 32.6642 -88.7878 119° Southeast 481 554 35,000  Level Memphis Center
Sun 08:57:57 AM 32.6017 -88.6458 118° Southeast 481 554 35,000  Level Memphis Center
Sun 08:59:30 AM 32.4953 -88.4197 119° Southeast 490 564 35,000  Level Atlanta Center
Sun 09:00:30 AM 32.4506 -88.2700 109° East 490 564 35,000  Level Atlanta Center
Sun 09:01:30 AM 32.4622 -88.1081 85° East 480 552 35,000  Level Atlanta Center
Sun 09:02:30 AM 32.4611 -87.9481 90° East 480 552 35,000 -200 Level Atlanta Center
Sun 09:03:30 AM 32.4389 -87.7869 99° East 480 552 34,600 -700 Descending Atlanta Center
Sun 09:04:30 AM 32.4164 -87.6311 100° East 485 558 33,600 -800 Descending Atlanta Center
Sun 09:05:30 AM 32.3961 -87.4728 99° East 485 558 33,000 -300 Descending Atlanta Center
Sun 09:06:30 AM 32.3603 -87.3289 106° East 490 564 33,000  Level Atlanta Center
Sun 09:07:30 AM 32.3247 -87.1750 105° East 495 570 33,000  Level Atlanta Center
Sun 09:08:30 AM 32.2867 -87.0264 107° East 485 558 33,000  Level Atlanta Center
Sun 09:09:30 AM 32.2036 -86.9156 132° Southeast 455 524 33,000  Level Atlanta Center
Sun 09:10:30 AM 32.0906 -86.8458 152° Southeast 430 495 33,000 -450 Level Atlanta Center
Sun 09:11:30 AM 31.9750 -86.7811 155° Southeast 445 512 32,100 -1,000 Descending Atlanta Center
Sun 09:12:30 AM 31.8703 -86.7069 149° Southeast 450 518 31,000 -1,050 Descending Atlanta Center
Sun 09:13:30 AM 31.8314 -86.5714 109° East 414 476 30,000 -1,000 Descending Atlanta Center
Sun 09:14:30 AM 31.8881 -86.4506 61° Northeast 349 402 29,000 -1,000 Descending Atlanta Center
Sun 09:15:30 AM 31.9794 -86.3575 41° Northeast 358 412 28,000 -1,000 Descending Atlanta Center
Sun 09:16:30 AM 32.0647 -86.2667 42° Northeast 386 444 27,000 -500 Descending Atlanta Center
Sun 09:17:30 AM 32.1481 -86.1608 47° Northeast 393 452 27,000  Level Atlanta Center
Sun 09:18:30 AM 32.1442 -86.0061 92° East 382 440 27,000 -150 Level Atlanta Center
Sun 09:19:30 AM 32.1506 -85.8714 87° East 397 457 26,700 -650 Descending Atlanta Center
Sun 09:20:30 AM 32.2167 -85.7647 54° Northeast 385 443 25,700 -850 Descending Atlanta Center
Sun 09:21:30 AM 32.3117 -85.6978 31° Northeast 380 437 25,000 -750 Descending Atlanta Center
Sun 09:22:30 AM 32.4083 -85.6356 29° Northeast 380 437 24,200 -950 Descending Atlanta Center
Sun 09:23:30 AM 32.5031 -85.5758 28° Northeast 385 443 23,100 -1,050 Descending Atlanta Center
Sun 09:24:30 AM 32.5936 -85.5131 30° Northeast 380 437 22,100 -950 Descending Atlanta Center
Sun 09:25:30 AM 32.6861 -85.4506 30° Northeast 380 437 21,200 -1,000 Descending Atlanta Center
Sun 09:26:30 AM 32.7786 -85.3878 30° Northeast 380 437 20,100 -1,050 Descending Atlanta Center
Sun 09:27:30 AM 32.8711 -85.3275 29° Northeast 380 437 19,100 -1,500 Descending Atlanta Center
Sun 09:28:30 AM 32.9617 -85.2619 31° Northeast 380 437 17,100 -2,050 Descending Atlanta Center
Sun 09:29:30 AM 33.0497 -85.2036 29° Northeast 380 437 15,000 -2,000 Descending Atlanta Center
Sun 09:30:30 AM 33.1131 -85.1275 45° Northeast 361 415 13,100 -1,450 Descending Atlanta Center
Sun 09:31:30 AM 33.1744 -85.0439 49° Northeast 343 395 12,100 -1,350 Descending Atlanta Center
Sun 09:32:30 AM 33.2378 -84.9578 49° Northeast 337 388 10,400 -1,850 Descending Atlanta Center
Sun 09:33:30 AM 33.3050 -84.8689 48° Northeast 325 374 8,400 -1,950 Descending Atlanta Center
Sun 09:34:30 AM 33.3619 -84.8000 45° Northeast 309 356 6,500 -1,600 Descending Atlanta Center
Sun 09:35:30 AM 33.4392 -84.8056 357° North 252 290 5,200 -1,150 Descending Atlanta Center
Sun 09:36:30 AM 33.5167 -84.8000 North 270 311 4,200 -1,000 Descending Atlanta TRACON
Sun 09:37:30 AM 33.5833 -84.7833 12° North 275 316 3,200 -605 Descending Atlanta TRACON
Sun 09:38:29 AM 33.6167 -84.7167 59° Northeast 247 284 3,000 -105 Descending Atlanta TRACON
Sun 09:39:24 AM 33.6167 -84.6333 90° East 219 252 3,000  Level Atlanta TRACON
Sun 09:40:29 AM 33.6167 -84.5667 90° East 206 237 3,000 -480 Level Atlanta TRACON
Sun 09:41:29 AM 33.6167 -84.5000 90° East 158 182 2,000 -835 Descending Atlanta TRACON
Sun 09:42:24 AM 33.6167 -84.4667 90° East 132 152 1,400 -655 Descending Atlanta TRACON
Sun 09:44:00 AM 33.6367 -84.4279 90° East  Level Estimated
Sun 09:51:00 AM 33.6367 -84.4279 301° West  Level Estimated

Login

Don't have an account? Register now (free) for customized features, flight alerts, and more!